Time;durP1;ratioP1;P1;durP2;ratioP2;P2;SDS_P1;SDS_P2;PMS_P1;PMS_P2;Temp;Humidity;BMP_temperature;BMP_pressure;BME280_temperature;BME280_humidity;BME280_pressure;Samples;Min_cycle;Max_cycle;Signal;HPM_P1;HPM_P2
2023/02/02 00:01:53;;;;;;;8.40;3.35;;;;;;;;;;4951552;29;20565;-75
2023/02/02 00:04:21;;;;;;;8.60;3.13;;;;;;;;;;4956483;29;20027;-76
2023/02/02 00:06:47;;;;;;;6.13;2.90;;;;;;;;;;4966583;29;20031;-75
2023/02/02 00:09:14;;;;;;;7.05;3.30;;;;;;;;;;4949591;29;20074;-76
2023/02/02 00:11:43;;;;;;;6.88;3.30;;;;;;;;;;4966245;29;20051;-78
2023/02/02 00:14:09;;;;;;;8.60;3.67;;;;;;;;;;4944732;29;20031;-75
2023/02/02 00:16:37;;;;;;;6.78;3.70;;;;;;;;;;4949380;29;20031;-76
2023/02/02 00:19:05;;;;;;;4.45;3.10;;;;;;;;;;4949894;29;20465;-75
2023/02/02 00:21:31;;;;;;;4.47;3.20;;;;;;;;;;4965116;29;20030;-74
2023/02/02 00:24:00;;;;;;;6.53;3.10;;;;;;;;;;4974797;28;20035;-75
2023/02/02 00:26:26;;;;;;;6.10;3.25;;;;;;;;;;4972486;28;20369;-76
2023/02/02 00:28:52;;;;;;;6.50;3.80;;;;;;;;;;4948720;29;20028;-75
2023/02/02 00:31:18;;;;;;;5.95;3.58;;;;;;;;;;4950109;29;20055;-75
2023/02/02 00:33:45;;;;;;;4.00;3.60;;;;;;;;;;4952077;29;20058;-75
2023/02/02 00:36:11;;;;;;;9.48;3.70;;;;;;;;;;4966088;29;20066;-76
2023/02/02 00:38:38;;;;;;;6.65;3.63;;;;;;;;;;4960859;29;20485;-76
2023/02/02 00:41:04;;;;;;;4.60;3.75;;;;;;;;;;4954341;29;20011;-77
2023/02/02 00:43:31;;;;;;;4.95;3.28;;;;;;;;;;4966206;29;20027;-76
2023/02/02 00:45:57;;;;;;;4.40;3.50;;;;;;;;;;4948387;29;20031;-75
2023/02/02 00:48:24;;;;;;;7.20;3.47;;;;;;;;;;4965216;29;20027;-77
2023/02/02 00:50:51;;;;;;;5.30;4.03;;;;;;;;;;4965866;29;20110;-76
2023/02/02 00:53:17;;;;;;;5.30;3.90;;;;;;;;;;4965280;28;20091;-75
2023/02/02 00:55:43;;;;;;;5.20;3.20;;;;;;;;;;4965848;29;20051;-76
2023/02/02 00:58:09;;;;;;;6.97;3.58;;;;;;;;;;4957892;29;20039;-75
2023/02/02 01:00:36;;;;;;;5.35;3.80;;;;;;;;;;4967140;29;20053;-76
2023/02/02 01:03:03;;;;;;;6.70;3.58;;;;;;;;;;4966665;29;20030;-78
2023/02/02 01:05:36;;;;;;;5.00;3.58;;;;;;;;;;4966511;29;20027;-77
2023/02/02 01:08:02;;;;;;;4.80;3.42;;;;;;;;;;4960681;29;20028;-76
2023/02/02 01:10:28;;;;;;;6.88;3.70;;;;;;;;;;4960283;29;20031;-76
2023/02/02 01:12:54;;;;;;;6.63;3.30;;;;;;;;;;4966183;29;20390;-77
2023/02/02 01:15:20;;;;;;;5.13;3.97;;;;;;;;;;4966164;29;20023;-75
2023/02/02 01:17:46;;;;;;;4.43;3.50;;;;;;;;;;4952105;29;20031;-75
2023/02/02 01:20:16;;;;;;;4.95;3.45;;;;;;;;;;4958189;29;20027;-75
2023/02/02 01:22:42;;;;;;;4.63;3.00;;;;;;;;;;4962606;29;20027;-75
2023/02/02 01:25:08;;;;;;;4.70;3.10;;;;;;;;;;4965138;29;20079;-76
2023/02/02 01:27:34;;;;;;;5.10;3.30;;;;;;;;;;4965738;29;20070;-76
2023/02/02 01:30:00;;;;;;;5.07;3.17;;;;;;;;;;4964345;28;20031;-79
2023/02/02 01:32:26;;;;;;;4.97;3.33;;;;;;;;;;4963333;29;20054;-77
2023/02/02 01:34:52;;;;;;;5.55;3.40;;;;;;;;;;4964946;29;20023;-74
2023/02/02 01:37:20;;;;;;;4.30;3.35;;;;;;;;;;4965885;29;20019;-76
2023/02/02 01:39:48;;;;;;;5.88;3.42;;;;;;;;;;4961405;29;20026;-76
2023/02/02 01:42:19;;;;;;;6.10;3.47;;;;;;;;;;4967516;29;20054;-76
2023/02/02 01:45:04;;;;;;;5.40;3.35;;;;;;;;;;4966792;29;20028;-76
2023/02/02 01:47:32;;;;;;;4.32;3.40;;;;;;;;;;4946438;29;20079;-75
2023/02/02 01:49:58;;;;;;;7.88;3.70;;;;;;;;;;4957788;28;20024;-75
2023/02/02 01:52:27;;;;;;;6.85;4.18;;;;;;;;;;4969059;29;20102;-76
2023/02/02 01:54:56;;;;;;;5.78;3.30;;;;;;;;;;4969512;29;20086;-76
2023/02/02 01:57:40;;;;;;;6.55;4.25;;;;;;;;;;4966210;29;20023;-75
2023/02/02 02:00:08;;;;;;;5.40;3.78;;;;;;;;;;4952605;29;20434;-76
2023/02/02 02:02:34;;;;;;;7.68;3.95;;;;;;;;;;4959871;28;20124;-76
2023/02/02 02:05:01;;;;;;;5.55;3.58;;;;;;;;;;4957871;28;20032;-77
2023/02/02 02:07:27;;;;;;;5.07;3.15;;;;;;;;;;4952746;28;20027;-75
2023/02/02 02:09:53;;;;;;;5.22;3.60;;;;;;;;;;4951047;29;20081;-75
2023/02/02 02:12:19;;;;;;;5.78;3.53;;;;;;;;;;4965503;29;20035;-75
2023/02/02 02:17:51;;;;;;;6.03;3.72;;;;;;;;;;4967972;29;20075;-76
2023/02/02 02:28:52;;;;;;;5.70;3.88;;;;;;;;;;4966859;28;20246;-76
2023/02/02 02:31:31;;;;;;;6.60;3.90;;;;;;;;;;4963143;29;20038;-75
2023/02/02 02:33:59;;;;;;;5.53;3.38;;;;;;;;;;4968569;29;20053;-76
2023/02/02 02:36:28;;;;;;;5.68;3.40;;;;;;;;;;4953618;29;20042;-75
2023/02/02 02:39:13;;;;;;;5.68;4.03;;;;;;;;;;4968118;28;20034;-75
2023/02/02 02:41:42;;;;;;;7.13;4.13;;;;;;;;;;4966854;28;20020;-76
2023/02/02 02:44:10;;;;;;;7.57;3.58;;;;;;;;;;4965457;29;20027;-76
2023/02/02 02:46:37;;;;;;;8.23;3.95;;;;;;;;;;4964549;29;20066;-76
2023/02/02 02:49:03;;;;;;;5.43;3.33;;;;;;;;;;4947002;29;20032;-76
2023/02/02 02:51:46;;;;;;;7.35;3.65;;;;;;;;;;4961246;29;20027;-76
2023/02/02 02:54:15;;;;;;;6.15;3.75;;;;;;;;;;4955496;29;20106;-77
2023/02/02 02:56:52;;;;;;;6.35;3.15;;;;;;;;;;4973536;28;20047;-75
2023/02/02 02:59:18;;;;;;;4.20;3.25;;;;;;;;;;4953056;29;20028;-78
2023/02/02 03:01:48;;;;;;;5.07;3.53;;;;;;;;;;4961427;28;20028;-75
2023/02/02 03:04:14;;;;;;;5.85;3.03;;;;;;;;;;4961789;29;20035;-75
2023/02/02 03:06:43;;;;;;;5.18;3.00;;;;;;;;;;4968642;29;20039;-76
2023/02/02 03:09:14;;;;;;;5.82;2.67;;;;;;;;;;4966881;29;20042;-75
2023/02/02 03:11:40;;;;;;;7.32;2.80;;;;;;;;;;4968013;29;20442;-75
2023/02/02 03:14:08;;;;;;;4.15;2.80;;;;;;;;;;4964105;29;20328;-76
2023/02/02 03:16:35;;;;;;;3.88;2.28;;;;;;;;;;4962744;29;20051;-76
2023/02/02 03:19:03;;;;;;;4.70;2.40;;;;;;;;;;4967978;29;20086;-78
2023/02/02 03:21:29;;;;;;;5.57;2.40;;;;;;;;;;4967836;29;20430;-75
2023/02/02 03:23:55;;;;;;;4.80;2.70;;;;;;;;;;4968129;29;20521;-76
2023/02/02 03:26:21;;;;;;;2.97;2.00;;;;;;;;;;4968477;28;20078;-76
2023/02/02 03:28:48;;;;;;;3.92;2.58;;;;;;;;;;4967553;29;20031;-75
2023/02/02 03:31:14;;;;;;;4.68;2.40;;;;;;;;;;4950411;29;20031;-75
2023/02/02 03:33:40;;;;;;;4.13;2.15;;;;;;;;;;4950687;29;20027;-75
2023/02/02 03:36:07;;;;;;;2.28;2.00;;;;;;;;;;4950694;29;20428;-76
2023/02/02 03:38:33;;;;;;;3.60;2.90;;;;;;;;;;4968295;29;20050;-76
2023/02/02 03:40:59;;;;;;;6.15;2.30;;;;;;;;;;4954464;29;20007;-73
2023/02/02 03:43:25;;;;;;;23.00;2.63;;;;;;;;;;4959957;29;20054;-76
2023/02/02 03:45:58;;;;;;;2.92;1.88;;;;;;;;;;4971237;29;20035;-75
2023/02/02 03:48:24;;;;;;;6.18;2.80;;;;;;;;;;4969676;29;20042;-76
2023/02/02 03:50:50;;;;;;;4.55;2.08;;;;;;;;;;4941002;29;20024;-77
2023/02/02 03:53:17;;;;;;;3.22;1.88;;;;;;;;;;4966273;29;20043;-76
2023/02/02 03:55:43;;;;;;;4.15;2.60;;;;;;;;;;4974292;28;20059;-75
2023/02/02 03:58:09;;;;;;;4.63;1.70;;;;;;;;;;4948402;29;20038;-78
2023/02/02 04:00:35;;;;;;;2.75;1.92;;;;;;;;;;4951297;29;20015;-76
2023/02/02 04:03:01;;;;;;;1.98;1.58;;;;;;;;;;4968765;29;20039;-76
2023/02/02 04:05:27;;;;;;;2.72;1.60;;;;;;;;;;4951381;29;20023;-76
2023/02/02 04:07:53;;;;;;;2.97;2.00;;;;;;;;;;4968124;29;20062;-75
2023/02/02 04:10:19;;;;;;;3.08;1.88;;;;;;;;;;4968297;29;20059;-76
2023/02/02 04:12:45;;;;;;;2.58;1.85;;;;;;;;;;4951032;29;20039;-74
2023/02/02 04:15:11;;;;;;;4.18;1.77;;;;;;;;;;4967391;28;20027;-77
2023/02/02 04:17:38;;;;;;;4.30;1.83;;;;;;;;;;4966575;29;20510;-76
2023/02/02 04:20:05;;;;;;;2.75;1.70;;;;;;;;;;4957600;28;20481;-77
2023/02/02 04:22:31;;;;;;;3.95;1.60;;;;;;;;;;4968274;29;20031;-76
2023/02/02 04:24:57;;;;;;;2.45;1.70;;;;;;;;;;4968008;29;20027;-76
2023/02/02 04:27:23;;;;;;;3.42;1.70;;;;;;;;;;4950970;29;20027;-76
2023/02/02 04:29:49;;;;;;;4.00;1.70;;;;;;;;;;4967837;29;20476;-76
2023/02/02 04:32:16;;;;;;;5.03;1.80;;;;;;;;;;4967744;29;20482;-76
2023/02/02 04:34:42;;;;;;;2.33;1.50;;;;;;;;;;4967443;29;20032;-75
2023/02/02 04:37:09;;;;;;;1.85;1.50;;;;;;;;;;4967716;29;20030;-76
2023/02/02 04:39:35;;;;;;;6.63;1.60;;;;;;;;;;4956470;29;20023;-78
2023/02/02 04:42:01;;;;;;;5.45;1.98;;;;;;;;;;4967782;29;20382;-76
2023/02/02 04:44:27;;;;;;;8.20;1.95;;;;;;;;;;4967461;29;20055;-78
2023/02/02 04:46:53;;;;;;;1.77;1.40;;;;;;;;;;4967948;29;20390;-76
2023/02/02 04:49:20;;;;;;;2.38;1.45;;;;;;;;;;4967846;29;20057;-76
2023/02/02 04:51:47;;;;;;;2.67;1.50;;;;;;;;;;4970123;28;20034;-75
2023/02/02 04:54:13;;;;;;;6.43;2.15;;;;;;;;;;4967220;29;20038;-76
2023/02/02 04:56:39;;;;;;;2.63;1.70;;;;;;;;;;4966161;28;20039;-76
2023/02/02 04:59:05;;;;;;;3.22;1.30;;;;;;;;;;4958099;29;20031;-76
2023/02/02 05:01:31;;;;;;;1.92;1.50;;;;;;;;;;4966751;29;20027;-76
2023/02/02 05:03:57;;;;;;;2.03;1.55;;;;;;;;;;4957259;29;20031;-75
2023/02/02 05:06:23;;;;;;;2.50;1.27;;;;;;;;;;4957072;29;20034;-74
2023/02/02 05:08:49;;;;;;;2.28;1.45;;;;;;;;;;4961203;29;20042;-78
2023/02/02 05:11:19;;;;;;;1.67;1.33;;;;;;;;;;4967366;29;20505;-75
2023/02/02 05:13:49;;;;;;;1.85;1.40;;;;;;;;;;4966977;29;20032;-75
2023/02/02 05:16:15;;;;;;;1.02;1.02;;;;;;;;;;4955681;29;20028;-75
2023/02/02 05:18:42;;;;;;;3.50;1.45;;;;;;;;;;4962361;29;20023;-76
2023/02/02 05:21:08;;;;;;;5.82;1.63;;;;;;;;;;4947957;29;20047;-77
2023/02/02 05:23:34;;;;;;;1.48;1.20;;;;;;;;;;4967145;29;20031;-76
2023/02/02 05:26:00;;;;;;;1.30;1.27;;;;;;;;;;4968320;28;20031;-77
2023/02/02 05:28:28;;;;;;;1.80;1.20;;;;;;;;;;4958994;29;20031;-76
2023/02/02 05:30:54;;;;;;;1.90;1.40;;;;;;;;;;4970959;29;20027;-76
2023/02/02 05:33:20;;;;;;;3.15;1.58;;;;;;;;;;4961682;29;20079;-76
2023/02/02 05:35:50;;;;;;;2.78;1.58;;;;;;;;;;4965947;29;20030;-76
2023/02/02 05:38:16;;;;;;;1.27;1.20;;;;;;;;;;4960761;29;20023;-76
2023/02/02 05:40:42;;;;;;;1.98;1.33;;;;;;;;;;4970861;29;20023;-77
2023/02/02 05:43:08;;;;;;;4.75;1.77;;;;;;;;;;4957611;29;20027;-75
2023/02/02 05:45:34;;;;;;;3.20;1.88;;;;;;;;;;4961631;29;20047;-77
2023/02/02 05:48:00;;;;;;;5.15;2.28;;;;;;;;;;4970013;29;20084;-76
2023/02/02 05:50:26;;;;;;;5.38;1.90;;;;;;;;;;4956949;29;20032;-78
2023/02/02 05:52:52;;;;;;;4.82;2.58;;;;;;;;;;4958275;28;20696;-76
2023/02/02 05:55:19;;;;;;;3.38;2.20;;;;;;;;;;4972439;28;20122;-77
2023/02/02 05:57:45;;;;;;;4.32;2.28;;;;;;;;;;4974738;28;20059;-77
2023/02/02 06:00:12;;;;;;;10.43;2.50;;;;;;;;;;4955674;29;20128;-78
2023/02/02 06:02:38;;;;;;;7.32;2.67;;;;;;;;;;4967259;29;20037;-77
2023/02/02 06:05:04;;;;;;;3.83;2.00;;;;;;;;;;4961269;29;20027;-75
2023/02/02 06:07:30;;;;;;;2.97;1.83;;;;;;;;;;4969741;28;20031;-77
2023/02/02 06:09:57;;;;;;;3.83;1.90;;;;;;;;;;4964054;29;20027;-76
2023/02/02 06:12:23;;;;;;;5.20;2.60;;;;;;;;;;4966538;29;20462;-76
2023/02/02 06:14:49;;;;;;;2.33;1.98;;;;;;;;;;4962648;29;20458;-77
2023/02/02 06:17:15;;;;;;;3.50;1.77;;;;;;;;;;4958917;29;20051;-80
2023/02/02 06:19:41;;;;;;;10.07;2.53;;;;;;;;;;4967117;29;20027;-77
2023/02/02 06:22:07;;;;;;;2.22;1.83;;;;;;;;;;4967494;29;20071;-78
2023/02/02 06:24:33;;;;;;;2.13;1.52;;;;;;;;;;4966808;28;20035;-77
2023/02/02 06:26:59;;;;;;;2.10;1.50;;;;;;;;;;4968118;29;20055;-76
2023/02/02 06:29:25;;;;;;;3.38;1.73;;;;;;;;;;4959661;29;20027;-76
2023/02/02 06:31:51;;;;;;;2.80;1.70;;;;;;;;;;4965876;29;20027;-76
2023/02/02 06:34:17;;;;;;;1.30;1.20;;;;;;;;;;4968607;29;20034;-76
2023/02/02 06:36:43;;;;;;;2.10;1.70;;;;;;;;;;4972008;28;20023;-76
2023/02/02 06:39:09;;;;;;;2.92;1.52;;;;;;;;;;4968059;29;20043;-75
2023/02/02 06:41:35;;;;;;;2.58;1.65;;;;;;;;;;4955082;29;20554;-75
2023/02/02 06:44:01;;;;;;;5.10;1.42;;;;;;;;;;4978330;28;20031;-78
2023/02/02 06:46:27;;;;;;;2.53;2.33;;;;;;;;;;4975063;28;20078;-77
2023/02/02 06:48:54;;;;;;;1.60;1.50;;;;;;;;;;4970779;29;20037;-76
2023/02/02 06:51:20;;;;;;;2.33;1.35;;;;;;;;;;4969950;29;20035;-76
2023/02/02 06:53:49;;;;;;;2.33;1.50;;;;;;;;;;4969244;29;20051;-76
2023/02/02 06:56:16;;;;;;;3.25;1.60;;;;;;;;;;4969490;29;20075;-77
2023/02/02 06:58:42;;;;;;;1.90;1.50;;;;;;;;;;4968132;29;20023;-75
2023/02/02 07:01:09;;;;;;;2.85;1.80;;;;;;;;;;4949395;29;20031;-75
2023/02/02 07:03:57;;;;;;;2.13;1.60;;;;;;;;;;4964839;29;20042;-76
2023/02/02 07:06:27;;;;;;;2.90;1.60;;;;;;;;;;4960838;28;20042;-76
2023/02/02 07:08:53;;;;;;;3.78;1.63;;;;;;;;;;4963581;29;20023;-77
2023/02/02 07:11:19;;;;;;;1.75;1.52;;;;;;;;;;4965108;29;20023;-76
2023/02/02 07:13:46;;;;;;;2.78;1.80;;;;;;;;;;4966852;29;20036;-75
2023/02/02 07:16:13;;;;;;;2.08;1.58;;;;;;;;;;4957471;29;20031;-76
2023/02/02 07:18:39;;;;;;;3.63;1.80;;;;;;;;;;4968757;29;20023;-76
2023/02/02 07:21:06;;;;;;;3.30;1.90;;;;;;;;;;4951597;29;20031;-76
2023/02/02 07:23:33;;;;;;;2.15;1.80;;;;;;;;;;4968803;29;20042;-76
2023/02/02 07:26:02;;;;;;;3.65;1.80;;;;;;;;;;4968657;29;20023;-77
2023/02/02 07:28:28;;;;;;;1.75;1.60;;;;;;;;;;4969448;28;20032;-76
2023/02/02 07:30:54;;;;;;;2.30;1.50;;;;;;;;;;4955897;29;20070;-76
2023/02/02 07:33:20;;;;;;;4.00;1.73;;;;;;;;;;4968489;29;20038;-76
2023/02/02 07:35:46;;;;;;;3.35;1.88;;;;;;;;;;4945946;29;20023;-76
2023/02/02 07:38:12;;;;;;;3.35;1.60;;;;;;;;;;4947860;29;20027;-76
2023/02/02 07:40:38;;;;;;;2.30;1.77;;;;;;;;;;4968815;29;20027;-76
2023/02/02 07:43:04;;;;;;;1.77;1.63;;;;;;;;;;4968116;29;20031;-75
2023/02/02 07:45:30;;;;;;;1.63;1.52;;;;;;;;;;4950910;29;20035;-76
2023/02/02 07:47:57;;;;;;;3.08;2.00;;;;;;;;;;4967534;28;20027;-77
2023/02/02 07:50:24;;;;;;;2.40;1.70;;;;;;;;;;4968009;29;20102;-76
2023/02/02 07:52:50;;;;;;;4.80;1.90;;;;;;;;;;4968447;29;20040;-76
2023/02/02 07:55:16;;;;;;;5.82;1.95;;;;;;;;;;4963956;29;20397;-76
2023/02/02 07:57:42;;;;;;;4.38;1.80;;;;;;;;;;4972663;28;20154;-76
2023/02/02 08:00:09;;;;;;;4.30;1.73;;;;;;;;;;4967895;29;20015;-77
2023/02/02 08:02:35;;;;;;;3.65;2.10;;;;;;;;;;4967269;29;20050;-76
2023/02/02 08:05:01;;;;;;;4.32;2.30;;;;;;;;;;4967789;29;20074;-76
2023/02/02 08:07:27;;;;;;;4.97;2.40;;;;;;;;;;4967926;29;20078;-77
2023/02/02 08:09:53;;;;;;;3.88;1.77;;;;;;;;;;4961227;28;20023;-76
2023/02/02 08:12:23;;;;;;;5.82;1.90;;;;;;;;;;4967762;29;20066;-76
2023/02/02 08:14:49;;;;;;;3.70;2.20;;;;;;;;;;4948079;29;20359;-76
2023/02/02 08:17:15;;;;;;;3.17;1.80;;;;;;;;;;4967275;29;20036;-76
2023/02/02 08:19:42;;;;;;;3.45;1.83;;;;;;;;;;4969637;28;20019;-76
2023/02/02 08:22:08;;;;;;;4.80;1.88;;;;;;;;;;4955213;29;20023;-77
2023/02/02 08:24:39;;;;;;;7.80;2.08;;;;;;;;;;4967721;29;20490;-75
2023/02/02 08:27:05;;;;;;;3.70;1.90;;;;;;;;;;4952686;29;20031;-77
2023/02/02 08:29:31;;;;;;;6.28;2.20;;;;;;;;;;4963762;29;20086;-76
2023/02/02 08:31:58;;;;;;;4.13;1.85;;;;;;;;;;4950804;29;20035;-76
2023/02/02 08:34:25;;;;;;;4.93;2.10;;;;;;;;;;4967839;29;20029;-77
2023/02/02 08:36:51;;;;;;;6.10;1.90;;;;;;;;;;4950488;29;20027;-77
2023/02/02 08:39:17;;;;;;;4.00;2.10;;;;;;;;;;4967979;29;20031;-77
2023/02/02 08:41:45;;;;;;;4.65;1.88;;;;;;;;;;4967833;29;20466;-76
2023/02/02 08:44:13;;;;;;;1.95;1.65;;;;;;;;;;4950825;29;20031;-76
2023/02/02 08:46:39;;;;;;;3.67;1.70;;;;;;;;;;4967816;29;20054;-75
2023/02/02 08:49:05;;;;;;;2.85;1.88;;;;;;;;;;4967786;29;20059;-76
2023/02/02 08:51:31;;;;;;;3.80;2.10;;;;;;;;;;4958015;29;20118;-76
2023/02/02 08:53:57;;;;;;;4.50;2.17;;;;;;;;;;4965027;29;20382;-76
2023/02/02 08:56:24;;;;;;;4.72;1.90;;;;;;;;;;4967551;29;20047;-75
2023/02/02 08:58:54;;;;;;;4.30;2.03;;;;;;;;;;4967616;29;20023;-77
2023/02/02 09:01:21;;;;;;;3.65;1.90;;;;;;;;;;4948074;29;20034;-77
2023/02/02 09:03:48;;;;;;;4.60;2.05;;;;;;;;;;4960074;28;20042;-78
2023/02/02 09:06:19;;;;;;;2.95;1.70;;;;;;;;;;4964577;29;20023;-77
2023/02/02 09:08:45;;;;;;;5.63;2.58;;;;;;;;;;4968407;28;20039;-77
2023/02/02 09:11:16;;;;;;;3.47;1.83;;;;;;;;;;4964646;28;20031;-76
2023/02/02 09:13:44;;;;;;;2.50;1.83;;;;;;;;;;4950096;29;20027;-76
2023/02/02 09:16:11;;;;;;;3.65;2.15;;;;;;;;;;4945937;29;20024;-74
2023/02/02 09:18:37;;;;;;;4.75;2.13;;;;;;;;;;4949269;29;20027;-77
2023/02/02 09:21:05;;;;;;;3.05;2.10;;;;;;;;;;4946837;29;20023;-77
2023/02/02 09:23:31;;;;;;;5.50;2.05;;;;;;;;;;4966625;29;20027;-77
2023/02/02 09:25:57;;;;;;;5.47;2.30;;;;;;;;;;4949679;29;20066;-77
2023/02/02 09:28:23;;;;;;;5.80;2.08;;;;;;;;;;4966709;29;20028;-76
2023/02/02 09:30:50;;;;;;;3.95;1.98;;;;;;;;;;4965502;29;20046;-77
2023/02/02 09:33:16;;;;;;;4.57;1.50;;;;;;;;;;4966820;29;20024;-78
2023/02/02 09:35:42;;;;;;;3.53;2.13;;;;;;;;;;4951005;29;20027;-77
2023/02/02 09:38:08;;;;;;;5.95;2.13;;;;;;;;;;4967269;29;20083;-76
2023/02/02 09:40:34;;;;;;;4.47;2.47;;;;;;;;;;4976831;28;20027;-76
2023/02/02 09:43:16;;;;;;;4.18;1.70;;;;;;;;;;4960879;29;20032;-78
2023/02/02 09:45:49;;;;;;;3.63;2.17;;;;;;;;;;4964859;29;20051;-78
2023/02/02 09:48:24;;;;;;;3.22;2.20;;;;;;;;;;4966919;29;20031;-76
2023/02/02 09:51:03;;;;;;;2.30;1.92;;;;;;;;;;4956734;29;20023;-78
2023/02/02 09:53:39;;;;;;;3.10;2.47;;;;;;;;;;4968145;29;20087;-77
2023/02/02 09:56:06;;;;;;;6.22;2.45;;;;;;;;;;4967931;29;20058;-76
2023/02/02 09:58:40;;;;;;;10.85;2.80;;;;;;;;;;4967924;29;20062;-77
2023/02/02 10:01:28;;;;;;;4.80;2.40;;;;;;;;;;4950620;29;20028;-77
2023/02/02 10:04:00;;;;;;;5.13;2.10;;;;;;;;;;4964362;29;20079;-77
2023/02/02 10:06:37;;;;;;;2.70;2.17;;;;;;;;;;4960192;29;20438;-77
2023/02/02 10:09:15;;;;;;;2.95;2.00;;;;;;;;;;4971299;29;20023;-79
2023/02/02 10:12:04;;;;;;;3.47;2.00;;;;;;;;;;4973013;28;20046;-77
2023/02/02 10:14:57;;;;;;;4.85;2.35;;;;;;;;;;4971001;29;20478;-76
2023/02/02 10:17:39;;;;;;;3.47;1.85;;;;;;;;;;4967957;28;20039;-77
2023/02/02 10:20:11;;;;;;;2.35;1.73;;;;;;;;;;4970725;29;20142;-77
2023/02/02 10:22:37;;;;;;;4.70;1.88;;;;;;;;;;4970767;29;20030;-77
2023/02/02 10:25:03;;;;;;;3.63;1.83;;;;;;;;;;4953910;29;20019;-77
2023/02/02 10:27:37;;;;;;;3.30;1.88;;;;;;;;;;4953298;29;20031;-77
2023/02/02 10:30:06;;;;;;;4.03;2.28;;;;;;;;;;4969472;29;20055;-77
2023/02/02 10:32:40;;;;;;;4.97;2.78;;;;;;;;;;4969281;29;20024;-78
2023/02/02 10:38:16;;;;;;;4.50;2.70;;;;;;;;;;4971517;29;20042;-79
2023/02/02 10:40:47;;;;;;;5.43;3.15;;;;;;;;;;4970297;29;20031;-77
2023/02/02 10:46:01;;;;;;;3.58;2.20;;;;;;;;;;4965040;29;20058;-77
2023/02/02 10:48:31;;;;;;;6.97;4.40;;;;;;;;;;4950770;28;20394;-79
2023/02/02 10:50:59;;;;;;;7.32;2.95;;;;;;;;;;4965061;28;20027;-77
2023/02/02 10:53:27;;;;;;;8.02;3.85;;;;;;;;;;4952480;29;20035;-77
2023/02/02 10:55:53;;;;;;;8.73;3.92;;;;;;;;;;4963846;28;20043;-78
2023/02/02 10:58:26;;;;;;;5.05;2.58;;;;;;;;;;4969411;29;20023;-80
2023/02/02 11:01:06;;;;;;;4.00;2.60;;;;;;;;;;4963573;29;20035;-78
2023/02/02 11:03:33;;;;;;;3.92;2.55;;;;;;;;;;4968101;28;20027;-77
2023/02/02 11:08:47;;;;;;;4.07;2.42;;;;;;;;;;4962041;29;20090;-75
2023/02/02 11:11:31;;;;;;;2.45;2.00;;;;;;;;;;4967873;28;20027;-78
2023/02/02 11:14:06;;;;;;;7.63;3.17;;;;;;;;;;4963704;28;20060;-76
2023/02/02 11:16:33;;;;;;;2.38;2.00;;;;;;;;;;4966871;28;20271;-77
2023/02/02 11:18:59;;;;;;;3.25;2.30;;;;;;;;;;4964601;28;20079;-76
2023/02/02 11:21:29;;;;;;;3.15;2.80;;;;;;;;;;4966659;29;20087;-76
2023/02/02 11:24:03;;;;;;;2.17;1.88;;;;;;;;;;4965336;28;20034;-77
2023/02/02 11:26:48;;;;;;;3.67;2.30;;;;;;;;;;4968205;29;20027;-76
2023/02/02 11:29:26;;;;;;;4.75;2.17;;;;;;;;;;4961410;29;20568;-77
2023/02/02 11:31:52;;;;;;;3.00;2.33;;;;;;;;;;4964865;29;20028;-76
2023/02/02 11:34:23;;;;;;;3.05;2.47;;;;;;;;;;4965645;29;20023;-77
2023/02/02 11:37:03;;;;;;;6.25;3.10;;;;;;;;;;4962635;29;20023;-76
2023/02/02 11:39:29;;;;;;;3.85;2.10;;;;;;;;;;4947308;29;20028;-77
2023/02/02 11:42:05;;;;;;;4.53;1.95;;;;;;;;;;4958933;29;20058;-76
2023/02/02 11:44:32;;;;;;;3.67;2.30;;;;;;;;;;4967207;29;20031;-77
2023/02/02 11:46:59;;;;;;;3.50;1.73;;;;;;;;;;4963627;29;20118;-77
2023/02/02 11:49:26;;;;;;;1.77;1.58;;;;;;;;;;4967210;28;20039;-76
2023/02/02 11:52:15;;;;;;;3.00;1.70;;;;;;;;;;4964935;28;20027;-77
2023/02/02 11:54:45;;;;;;;4.95;3.60;;;;;;;;;;4955714;29;20098;-77
2023/02/02 11:57:15;;;;;;;6.78;4.47;;;;;;;;;;4962857;29;20584;-78
2023/02/02 11:59:43;;;;;;;5.00;3.95;;;;;;;;;;4962098;29;20038;-77
2023/02/02 12:02:29;;;;;;;8.48;6.50;;;;;;;;;;4959988;28;20032;-77
2023/02/02 12:05:13;;;;;;;4.25;3.30;;;;;;;;;;4964882;29;20031;-77
2023/02/02 12:07:40;;;;;;;2.45;1.70;;;;;;;;;;4945960;29;20035;-78
2023/02/02 12:10:13;;;;;;;4.13;1.70;;;;;;;;;;4948676;29;20027;-77
2023/02/02 12:12:49;;;;;;;2.70;2.47;;;;;;;;;;4965023;29;20493;-78
2023/02/02 12:15:32;;;;;;;2.95;1.70;;;;;;;;;;4965206;29;20033;-77
2023/02/02 12:18:07;;;;;;;4.15;2.20;;;;;;;;;;4960868;28;20022;-76
2023/02/02 12:20:49;;;;;;;1.95;1.63;;;;;;;;;;4963042;29;20020;-75
2023/02/02 12:23:18;;;;;;;4.93;1.90;;;;;;;;;;4958714;29;20031;-78
2023/02/02 12:25:50;;;;;;;3.60;1.60;;;;;;;;;;4962800;28;20494;-78
2023/02/02 12:28:16;;;;;;;2.55;1.70;;;;;;;;;;4966159;28;20027;-77
2023/02/02 12:30:51;;;;;;;3.97;1.70;;;;;;;;;;4964047;29;20114;-77
2023/02/02 12:33:37;;;;;;;4.78;1.70;;;;;;;;;;4959791;28;20034;-76
2023/02/02 12:36:12;;;;;;;3.85;1.90;;;;;;;;;;4925016;29;20043;-76
2023/02/02 12:38:53;;;;;;;2.42;2.20;;;;;;;;;;4968145;28;20031;-77
2023/02/02 12:41:38;;;;;;;5.38;2.35;;;;;;;;;;4965384;29;20018;-77
2023/02/02 12:44:10;;;;;;;3.10;1.92;;;;;;;;;;4963950;29;20030;-77
2023/02/02 12:46:42;;;;;;;6.25;2.35;;;;;;;;;;4966326;29;20430;-77
2023/02/02 12:49:11;;;;;;;3.75;1.60;;;;;;;;;;4965997;28;20019;-77
2023/02/02 12:51:48;;;;;;;4.10;2.55;;;;;;;;;;4971944;28;20086;-76
2023/02/02 12:54:20;;;;;;;2.47;1.83;;;;;;;;;;4942252;29;20038;-78
2023/02/02 12:56:58;;;;;;;4.22;2.08;;;;;;;;;;4957280;28;20045;-82
2023/02/02 12:59:27;;;;;;;3.95;2.83;;;;;;;;;;4945413;28;20234;-77
2023/02/02 13:01:53;;;;;;;6.45;2.20;;;;;;;;;;4964489;28;20470;-77
2023/02/02 13:04:19;;;;;;;2.72;1.73;;;;;;;;;;4966083;28;20062;-77
2023/02/02 13:06:55;;;;;;;3.10;2.28;;;;;;;;;;4947855;29;20095;-77
2023/02/02 13:09:35;;;;;;;4.13;2.50;;;;;;;;;;4964258;29;20054;-78
2023/02/02 13:12:04;;;;;;;3.88;1.92;;;;;;;;;;4965489;29;20023;-77
2023/02/02 13:14:33;;;;;;;4.40;2.60;;;;;;;;;;4962925;29;20035;-75
2023/02/02 13:17:02;;;;;;;3.72;2.15;;;;;;;;;;4965996;28;20019;-76
2023/02/02 13:19:35;;;;;;;3.47;2.00;;;;;;;;;;4955927;29;20023;-77
2023/02/02 13:22:03;;;;;;;3.72;2.28;;;;;;;;;;4965711;29;20027;-77
2023/02/02 13:24:31;;;;;;;4.38;2.28;;;;;;;;;;4965757;29;20031;-75
2023/02/02 13:26:58;;;;;;;3.78;1.88;;;;;;;;;;4964613;28;20034;-77
2023/02/02 13:29:39;;;;;;;3.30;1.90;;;;;;;;;;4959410;29;20042;-77
2023/02/02 13:32:17;;;;;;;3.40;2.10;;;;;;;;;;4963016;28;20625;-77
2023/02/02 13:34:43;;;;;;;3.67;1.63;;;;;;;;;;4960528;29;20045;-76
2023/02/02 13:37:12;;;;;;;3.42;1.95;;;;;;;;;;4943695;29;20027;-77
2023/02/02 13:39:44;;;;;;;4.95;1.90;;;;;;;;;;4945990;28;20039;-76
2023/02/02 13:42:33;;;;;;;3.03;1.77;;;;;;;;;;4958794;29;20462;-78
2023/02/02 13:45:03;;;;;;;2.13;1.40;;;;;;;;;;4950067;28;20043;-76
2023/02/02 13:47:34;;;;;;;3.38;1.92;;;;;;;;;;4966024;28;20035;-77
2023/02/02 13:50:06;;;;;;;2.03;1.80;;;;;;;;;;4950251;28;20111;-77
2023/02/02 13:52:42;;;;;;;4.15;2.38;;;;;;;;;;4964187;28;20036;-78
2023/02/02 13:55:43;;;;;;;9.60;5.95;;;;;;;;;;4967921;29;20106;-79
2023/02/02 13:58:16;;;;;;;74.45;42.55;;;;;;;;;;4858366;29;20094;-77
2023/02/02 14:00:55;;;;;;;82.72;45.00;;;;;;;;;;4950256;29;20036;-79
2023/02/02 14:03:27;;;;;;;187.73;104.47;;;;;;;;;;4961410;28;20028;-77
2023/02/02 14:06:08;;;;;;;96.10;55.42;;;;;;;;;;4963370;29;20041;-77
2023/02/02 14:08:35;;;;;;;19.15;14.25;;;;;;;;;;4950603;28;20092;-77
2023/02/02 14:11:04;;;;;;;6.22;4.85;;;;;;;;;;4968058;29;20058;-77
2023/02/02 14:16:32;;;;;;;2.95;2.17;;;;;;;;;;4969062;29;20062;-80
2023/02/02 14:18:59;;;;;;;8.88;4.65;;;;;;;;;;4969334;29;20066;-78
2023/02/02 14:21:32;;;;;;;4.05;1.80;;;;;;;;;;4950281;29;20023;-76
2023/02/02 14:23:59;;;;;;;5.40;2.83;;;;;;;;;;4952649;29;20023;-76
2023/02/02 14:26:57;;;;;;;4.07;2.42;;;;;;;;;;4969411;29;20223;-76
2023/02/02 14:29:34;;;;;;;3.67;2.92;;;;;;;;;;4926674;28;20170;-77
2023/02/02 14:32:07;;;;;;;4.40;2.75;;;;;;;;;;4967279;29;20024;-76
2023/02/02 14:34:33;;;;;;;5.18;2.70;;;;;;;;;;4959496;29;20023;-76
2023/02/02 14:37:11;;;;;;;1.95;1.75;;;;;;;;;;4968305;29;20043;-76
2023/02/02 14:39:46;;;;;;;2.90;1.88;;;;;;;;;;4966768;29;20078;-76
2023/02/02 14:45:26;;;;;;;6.40;3.53;;;;;;;;;;4966574;28;20039;-75
2023/02/02 14:47:52;;;;;;;4.22;2.08;;;;;;;;;;4962429;29;20023;-77
2023/02/02 14:50:35;;;;;;;10.50;8.02;;;;;;;;;;4970502;29;20028;-78
2023/02/02 14:53:09;;;;;;;74.65;33.63;;;;;;;;;;4970366;29;20055;-75
2023/02/02 14:55:50;;;;;;;25.17;16.05;;;;;;;;;;4970029;29;20503;-75
2023/02/02 14:58:22;;;;;;;15.27;9.02;;;;;;;;;;4968862;28;20078;-76
2023/02/02 15:00:54;;;;;;;10.98;8.25;;;;;;;;;;4970167;29;20031;-76
2023/02/02 15:03:39;;;;;;;15.35;13.75;;;;;;;;;;4969903;28;20058;-75
2023/02/02 15:06:13;;;;;;;13.13;11.25;;;;;;;;;;4970401;29;20035;-75
2023/02/02 15:08:39;;;;;;;8.93;5.43;;;;;;;;;;4969264;29;20028;-77
2023/02/02 15:13:50;;;;;;;;;;;;;;;;;;4955111;28;20056;-77
2023/02/02 15:16:23;;;;;;;2.72;1.95;;;;;;;;;;4971463;28;19906;-78
2023/02/02 15:18:56;;;;;;;4.97;2.72;;;;;;;;;;4965963;29;20039;-76
2023/02/02 15:21:23;;;;;;;4.85;2.40;;;;;;;;;;4969438;29;20019;-77
2023/02/02 15:23:49;;;;;;;2.95;2.03;;;;;;;;;;4969482;29;20027;-76
2023/02/02 15:26:32;;;;;;;2.72;1.65;;;;;;;;;;4969553;29;20046;-79